Time;durP1;ratioP1;P1;durP2;ratioP2;P2;SDS_P1;SDS_P2;PMS_P1;PMS_P2;Temp;Humidity;BMP_temperature;BMP_pressure;BME280_temperature;BME280_humidity;BME280_pressure;Samples;Min_cycle;Max_cycle;Signal;HPM_P1;HPM_P2
2021/12/23 00:01:41;;;;;;;45.00;24.47;;;-3.30;99.90;;;;;;4937048;29;20200;-67
2021/12/23 00:04:09;;;;;;;46.17;26.23;;;-3.30;99.90;;;;;;4937070;29;20512;-68
2021/12/23 00:06:34;;;;;;;36.83;20.80;;;-3.30;99.90;;;;;;4935581;29;20947;-67
2021/12/23 00:09:02;;;;;;;54.40;24.40;;;-3.20;99.90;;;;;;4936969;29;20425;-67
2021/12/23 00:11:28;;;;;;;45.20;24.60;;;-3.20;99.90;;;;;;4936793;29;20209;-67
2021/12/23 00:14:03;;;;;;;39.50;23.27;;;-3.20;99.90;;;;;;4937158;29;20833;-67
2021/12/23 00:16:44;;;;;;;39.10;21.60;;;-3.10;99.90;;;;;;4936871;29;20196;-67
2021/12/23 00:19:21;;;;;;;43.73;23.40;;;-3.10;99.90;;;;;;4936800;29;20461;-67
2021/12/23 00:24:32;;;;;;;43.63;25.13;;;-3.10;99.90;;;;;;4936932;29;20520;-67
2021/12/23 00:26:58;;;;;;;46.87;23.27;;;-3.20;99.90;;;;;;4936409;29;20469;-67
2021/12/23 00:29:23;;;;;;;56.97;23.87;;;-3.10;99.90;;;;;;4936659;29;20272;-67
2021/12/23 00:31:49;;;;;;;39.00;23.67;;;-3.20;99.90;;;;;;4936524;29;21011;-67
2021/12/23 00:34:14;;;;;;;48.33;25.70;;;-3.20;99.90;;;;;;4935955;29;20177;-67
2021/12/23 00:36:43;;;;;;;45.10;22.93;;;-3.20;99.90;;;;;;4936337;29;20193;-67
2021/12/23 00:39:10;;;;;;;44.70;22.33;;;-3.20;99.90;;;;;;4936326;29;20296;-67
2021/12/23 00:41:35;;;;;;;39.37;23.83;;;-3.20;99.90;;;;;;4936309;29;20947;-67
2021/12/23 00:44:01;;;;;;;49.20;23.87;;;-3.20;99.90;;;;;;4936365;29;20428;-67
2021/12/23 00:46:26;;;;;;;47.40;25.37;;;-3.20;99.90;;;;;;4936157;29;20225;-67
2021/12/23 00:48:52;;;;;;;48.83;24.33;;;-3.30;99.90;;;;;;4936227;29;20205;-67
2021/12/23 00:51:19;;;;;;;43.43;22.80;;;-3.30;99.90;;;;;;4936105;29;20228;-67
2021/12/23 00:53:49;;;;;;;47.77;23.90;;;-3.30;99.90;;;;;;4936172;29;20178;-67
2021/12/23 00:56:14;;;;;;;43.50;22.23;;;-3.30;99.90;;;;;;4935757;29;20432;-67
2021/12/23 00:58:40;;;;;;;44.67;23.70;;;-3.30;99.90;;;;;;4936050;29;20426;-67
2021/12/23 01:01:06;;;;;;;43.37;23.40;;;-3.30;99.90;;;;;;4936069;29;20952;-67
2021/12/23 01:03:32;;;;;;;38.20;21.10;;;-3.30;99.90;;;;;;4936054;29;20237;-68
2021/12/23 01:05:58;;;;;;;42.03;23.83;;;-3.20;99.90;;;;;;4935602;29;20916;-68
2021/12/23 01:08:24;;;;;;;46.63;22.50;;;-3.20;99.90;;;;;;4935836;29;20554;-68
2021/12/23 01:10:55;;;;;;;45.03;23.70;;;-3.30;99.90;;;;;;4935613;29;20248;-68
2021/12/23 01:13:26;;;;;;;45.37;23.20;;;-3.20;99.90;;;;;;4935795;29;20460;-68
2021/12/23 01:16:02;;;;;;;44.93;24.77;;;-3.20;99.90;;;;;;4935505;29;20430;-68
2021/12/23 01:18:42;;;;;;;46.70;22.93;;;-3.20;99.90;;;;;;4935755;29;20436;-68
2021/12/23 01:21:17;;;;;;;45.53;21.63;;;-3.20;99.90;;;;;;4935492;29;20460;-68
2021/12/23 01:23:50;;;;;;;39.70;21.63;;;-3.20;99.90;;;;;;4935640;29;20428;-67
2021/12/23 01:26:19;;;;;;;40.13;21.80;;;-3.20;99.90;;;;;;4935313;29;20888;-68
2021/12/23 01:28:46;;;;;;;43.77;20.60;;;-3.20;99.90;;;;;;4935529;29;20432;-68
2021/12/23 01:31:12;;;;;;;41.67;23.00;;;-3.10;99.90;;;;;;4935384;29;20516;-68
2021/12/23 01:33:37;;;;;;;45.97;24.30;;;-3.10;99.90;;;;;;4935379;29;20417;-67
2021/12/23 01:36:03;;;;;;;39.50;25.37;;;-3.10;99.90;;;;;;4935076;29;20410;-67
2021/12/23 01:38:29;;;;;;;42.87;23.67;;;-3.10;99.90;;;;;;4935365;29;20204;-68
2021/12/23 01:40:54;;;;;;;44.63;24.60;;;-3.10;99.90;;;;;;4935067;29;20477;-68
2021/12/23 01:43:20;;;;;;;46.03;23.60;;;-3.10;99.90;;;;;;4935298;29;20173;-68
2021/12/23 01:45:49;;;;;;;44.90;23.00;;;-3.20;99.90;;;;;;4934214;29;20633;-67
2021/12/23 01:48:16;;;;;;;36.57;22.63;;;-3.10;99.90;;;;;;4935212;29;20253;-68
2021/12/23 01:50:42;;;;;;;40.80;21.87;;;-3.10;99.90;;;;;;4935038;29;20430;-68
2021/12/23 01:53:08;;;;;;;45.17;25.00;;;-3.20;99.90;;;;;;4935104;29;20939;-68
2021/12/23 01:55:37;;;;;;;49.30;25.07;;;-3.30;99.90;;;;;;4934716;29;20434;-68
2021/12/23 01:58:05;;;;;;;41.77;23.40;;;-3.30;99.90;;;;;;4935067;29;20425;-67
2021/12/23 02:00:33;;;;;;;46.40;25.03;;;-3.30;99.90;;;;;;4934871;29;20552;-68
2021/12/23 02:03:00;;;;;;;46.10;25.90;;;-3.30;99.90;;;;;;4935011;29;20432;-67
2021/12/23 02:05:26;;;;;;;51.60;24.17;;;-3.30;99.90;;;;;;4934667;29;20421;-68
2021/12/23 02:07:52;;;;;;;45.10;24.30;;;-3.40;99.90;;;;;;4935070;29;20436;-68
2021/12/23 02:10:18;;;;;;;51.90;26.73;;;-3.30;99.90;;;;;;4934826;29;20449;-67
2021/12/23 02:12:47;;;;;;;46.20;24.93;;;-3.40;99.90;;;;;;4934814;29;20464;-67
2021/12/23 02:15:14;;;;;;;40.30;22.50;;;-3.40;99.90;;;;;;4934567;29;20448;-68
2021/12/23 02:17:40;;;;;;;41.07;22.07;;;-3.40;99.90;;;;;;4934849;29;20438;-67
2021/12/23 02:20:11;;;;;;;46.37;24.07;;;-3.40;99.90;;;;;;4934731;29;20468;-68
2021/12/23 02:22:38;;;;;;;47.67;24.00;;;-3.50;99.90;;;;;;4934732;29;20437;-68
2021/12/23 02:25:06;;;;;;;40.57;22.37;;;-3.40;99.90;;;;;;4934630;29;20413;-68
2021/12/23 02:27:31;;;;;;;47.40;22.53;;;-3.30;99.90;;;;;;4934737;29;20480;-68
2021/12/23 02:29:57;;;;;;;48.73;25.13;;;-3.30;99.90;;;;;;4934761;29;20425;-68
2021/12/23 02:32:23;;;;;;;42.70;23.03;;;-3.30;99.90;;;;;;4934677;29;20257;-67
2021/12/23 02:34:48;;;;;;;39.83;24.07;;;-3.30;99.90;;;;;;4934974;29;20181;-68
2021/12/23 02:37:14;;;;;;;45.83;23.30;;;-3.30;99.90;;;;;;4934440;29;20553;-68
2021/12/23 02:39:40;;;;;;;42.37;22.63;;;-3.30;99.90;;;;;;4934558;29;20209;-68
2021/12/23 02:42:06;;;;;;;50.27;23.60;;;-3.40;99.90;;;;;;4934511;29;20806;-69
2021/12/23 02:44:32;;;;;;;39.50;22.87;;;-3.40;99.90;;;;;;4934615;29;20432;-69
2021/12/23 02:46:57;;;;;;;42.57;22.40;;;-3.40;99.90;;;;;;4934420;29;20174;-69
2021/12/23 02:49:23;;;;;;;44.07;24.20;;;-3.40;99.90;;;;;;4934553;29;20177;-68
2021/12/23 02:51:49;;;;;;;45.00;25.13;;;-3.30;99.90;;;;;;4933257;29;20232;-69
2021/12/23 02:54:14;;;;;;;36.20;23.30;;;-3.30;99.90;;;;;;4934566;29;20181;-69
2021/12/23 02:56:40;;;;;;;43.50;24.03;;;-3.30;99.90;;;;;;4935549;29;20178;-67
2021/12/23 02:59:05;;;;;;;39.30;21.20;;;-3.30;99.90;;;;;;4938073;29;20664;-67
2021/12/23 03:01:31;;;;;;;37.27;21.60;;;-3.20;99.90;;;;;;4938130;29;20297;-69
2021/12/23 03:03:57;;;;;;;37.23;21.43;;;-3.20;99.90;;;;;;4938212;29;20196;-70
2021/12/23 03:06:25;;;;;;;33.17;19.40;;;-3.20;99.90;;;;;;4937886;29;20165;-69
2021/12/23 03:08:54;;;;;;;41.80;23.17;;;-3.20;99.90;;;;;;4938118;29;20425;-70
2021/12/23 03:11:21;;;;;;;40.83;22.70;;;-3.20;99.90;;;;;;4937878;29;20496;-69
2021/12/23 03:13:48;;;;;;;46.43;23.00;;;-3.20;99.90;;;;;;4938036;29;20433;-69
2021/12/23 03:16:18;;;;;;;45.53;23.13;;;-3.20;99.90;;;;;;4937629;29;20417;-69
2021/12/23 03:18:43;;;;;;;36.30;21.70;;;-3.20;99.90;;;;;;4937990;29;20424;-69
2021/12/23 03:21:09;;;;;;;38.73;21.13;;;-3.20;99.90;;;;;;4937859;29;20808;-70
2021/12/23 03:23:35;;;;;;;40.33;21.13;;;-3.20;99.90;;;;;;4937808;29;20201;-69
2021/12/23 03:26:02;;;;;;;39.20;20.93;;;-3.20;99.90;;;;;;4937542;29;20224;-69
2021/12/23 03:28:27;;;;;;;37.40;21.43;;;-3.20;99.90;;;;;;4937710;29;20426;-69
2021/12/23 03:30:53;;;;;;;44.80;23.47;;;-3.30;99.90;;;;;;4937624;29;20622;-69
2021/12/23 03:33:19;;;;;;;35.23;20.27;;;-3.20;99.90;;;;;;4937612;29;20205;-69
2021/12/23 03:35:46;;;;;;;45.37;21.70;;;-3.20;99.90;;;;;;4937253;29;20170;-69
2021/12/23 03:38:12;;;;;;;38.30;19.30;;;-3.20;99.90;;;;;;4937628;29;20428;-69
2021/12/23 03:40:38;;;;;;;37.40;20.53;;;-3.20;99.90;;;;;;4937263;29;20461;-69
2021/12/23 03:43:04;;;;;;;35.53;20.37;;;-3.20;99.90;;;;;;4937664;29;20444;-69
2021/12/23 03:45:30;;;;;;;37.23;20.40;;;-3.10;99.90;;;;;;4937168;29;20429;-69
2021/12/23 03:47:55;;;;;;;35.47;22.60;;;-3.10;99.90;;;;;;4937372;29;20185;-71
2021/12/23 03:50:23;;;;;;;40.33;21.47;;;-3.00;99.90;;;;;;4937392;29;20205;-69
2021/12/23 03:52:49;;;;;;;39.63;20.53;;;-2.90;99.90;;;;;;4937276;29;20198;-69
2021/12/23 03:55:15;;;;;;;42.70;22.60;;;-2.90;99.90;;;;;;4936873;29;20770;-69
2021/12/23 03:57:41;;;;;;;34.27;20.50;;;-3.00;99.90;;;;;;4937131;28;20582;-69
2021/12/23 04:00:11;;;;;;;42.60;20.43;;;-3.00;99.90;;;;;;4937115;29;20555;-69
2021/12/23 04:02:37;;;;;;;32.90;19.83;;;-3.00;99.90;;;;;;4937060;29;20196;-69
2021/12/23 04:05:04;;;;;;;38.67;20.20;;;-3.00;99.90;;;;;;4936817;29;20425;-69
2021/12/23 04:07:29;;;;;;;36.43;18.60;;;-3.00;99.90;;;;;;4936356;29;20465;-69
2021/12/23 04:09:55;;;;;;;36.23;20.57;;;-2.90;99.90;;;;;;4936388;29;20844;-69
2021/12/23 04:12:21;;;;;;;29.60;18.10;;;-2.90;99.90;;;;;;4936899;29;20194;-69
2021/12/23 04:14:47;;;;;;;33.93;19.67;;;-2.90;99.90;;;;;;4936915;29;20208;-69
2021/12/23 04:17:13;;;;;;;32.73;18.23;;;-2.80;99.90;;;;;;4937076;29;20895;-69
2021/12/23 04:19:39;;;;;;;41.30;22.33;;;-2.80;99.90;;;;;;4936833;29;20484;-69
2021/12/23 04:22:04;;;;;;;33.73;18.60;;;-2.90;99.90;;;;;;4936714;29;20193;-69
2021/12/23 04:24:30;;;;;;;34.43;19.47;;;-2.90;99.90;;;;;;4936672;29;20559;-69
2021/12/23 04:26:55;;;;;;;37.33;19.50;;;-2.90;99.90;;;;;;4936490;29;20525;-69
2021/12/23 04:29:21;;;;;;;37.10;19.70;;;-2.90;99.90;;;;;;4936930;29;20169;-69
2021/12/23 04:31:47;;;;;;;37.63;20.67;;;-2.90;99.90;;;;;;4936577;29;20198;-69
2021/12/23 04:34:12;;;;;;;35.70;19.00;;;-2.90;99.90;;;;;;4936499;29;20169;-69
2021/12/23 04:36:38;;;;;;;37.27;20.50;;;-2.90;99.90;;;;;;4936246;29;20169;-69
2021/12/23 04:39:05;;;;;;;37.47;21.07;;;-2.90;99.90;;;;;;4936387;29;20248;-69
2021/12/23 04:41:31;;;;;;;42.17;22.07;;;-2.90;99.90;;;;;;4936406;29;20202;-69
2021/12/23 04:43:57;;;;;;;33.00;19.47;;;-2.80;99.90;;;;;;4936489;29;20770;-70
2021/12/23 04:46:23;;;;;;;35.80;20.67;;;-2.80;99.90;;;;;;4936123;29;20424;-69
2021/12/23 04:48:50;;;;;;;31.20;19.23;;;-2.70;99.90;;;;;;4936245;29;20241;-69
2021/12/23 04:51:16;;;;;;;34.60;18.97;;;-2.70;99.90;;;;;;4936121;29;20819;-69
2021/12/23 04:53:44;;;;;;;36.07;17.73;;;-2.60;99.90;;;;;;4936166;29;20785;-69
2021/12/23 04:56:10;;;;;;;36.27;20.67;;;-2.60;99.90;;;;;;4935942;29;20424;-69
2021/12/23 04:58:36;;;;;;;33.77;19.60;;;-2.60;99.90;;;;;;4936071;29;20418;-69
2021/12/23 05:01:03;;;;;;;36.53;19.47;;;-2.60;99.90;;;;;;4935942;29;20610;-69
2021/12/23 05:03:29;;;;;;;32.80;19.03;;;-2.60;99.90;;;;;;4934753;29;20488;-69
2021/12/23 05:05:55;;;;;;;33.60;17.87;;;-2.60;99.90;;;;;;4935628;29;20429;-69
2021/12/23 05:08:20;;;;;;;38.43;20.03;;;-2.60;99.90;;;;;;4935830;29;20202;-69
2021/12/23 05:10:46;;;;;;;32.90;19.13;;;-2.50;99.90;;;;;;4935666;29;20220;-69
2021/12/23 05:13:12;;;;;;;35.77;19.60;;;-2.50;99.90;;;;;;4935803;29;20189;-69
2021/12/23 05:15:38;;;;;;;37.67;19.43;;;-2.50;99.90;;;;;;4935594;29;20429;-69
2021/12/23 05:18:05;;;;;;;28.47;17.77;;;-2.40;99.90;;;;;;4935762;29;20429;-69
2021/12/23 05:20:31;;;;;;;34.57;19.70;;;-2.50;99.90;;;;;;4935327;29;20238;-69
2021/12/23 05:22:57;;;;;;;37.73;18.97;;;-2.40;99.90;;;;;;4935704;29;20504;-69
2021/12/23 05:25:23;;;;;;;34.47;18.07;;;-2.40;99.90;;;;;;4935361;29;20180;-69
2021/12/23 05:27:52;;;;;;;31.90;19.47;;;-2.50;99.90;;;;;;4935258;29;20177;-69
2021/12/23 05:30:18;;;;;;;33.87;18.93;;;-2.50;99.90;;;;;;4935599;29;20425;-69
2021/12/23 05:32:45;;;;;;;32.00;18.87;;;-2.50;99.90;;;;;;4935371;29;20947;-69
2021/12/23 05:35:12;;;;;;;25.30;15.93;;;-2.50;99.90;;;;;;4935220;29;20464;-69
2021/12/23 05:37:38;;;;;;;34.67;18.43;;;-2.50;99.90;;;;;;4935679;29;20436;-69
2021/12/23 05:40:05;;;;;;;34.60;18.30;;;-2.40;99.90;;;;;;4935267;29;20461;-69
2021/12/23 05:42:31;;;;;;;31.80;19.37;;;-2.50;99.90;;;;;;4935307;29;20649;-69
2021/12/23 05:44:56;;;;;;;35.97;18.73;;;-2.50;99.90;;;;;;4935292;29;20492;-69
2021/12/23 05:47:22;;;;;;;34.37;19.03;;;-2.50;99.90;;;;;;4934991;29;20177;-69
2021/12/23 05:49:48;;;;;;;37.30;19.40;;;-2.50;99.90;;;;;;4935113;29;20170;-68
2021/12/23 05:52:13;;;;;;;31.03;17.60;;;-2.50;99.90;;;;;;4935210;29;20220;-69
2021/12/23 05:54:39;;;;;;;37.03;17.80;;;-2.50;99.90;;;;;;4935159;29;20656;-69
2021/12/23 05:57:04;;;;;;;37.80;19.80;;;-2.60;99.90;;;;;;4934869;29;20253;-69
2021/12/23 05:59:32;;;;;;;35.83;18.67;;;-2.70;99.90;;;;;;4935171;29;20356;-69
2021/12/23 06:01:59;;;;;;;31.50;19.97;;;-2.80;99.90;;;;;;4934949;29;20196;-68
2021/12/23 06:04:25;;;;;;;34.97;18.90;;;-2.80;99.90;;;;;;4935050;29;20418;-69
2021/12/23 06:06:51;;;;;;;32.60;18.97;;;-2.90;99.90;;;;;;4934785;29;20504;-69
2021/12/23 06:09:16;;;;;;;32.40;19.83;;;-2.90;99.90;;;;;;4935031;29;20454;-68
2021/12/23 06:11:42;;;;;;;34.87;17.40;;;-2.80;99.90;;;;;;4934804;29;20217;-68
2021/12/23 06:14:07;;;;;;;35.10;20.30;;;-2.90;99.90;;;;;;4934947;29;20182;-68
2021/12/23 06:16:33;;;;;;;32.97;18.90;;;-2.90;99.90;;;;;;4934612;29;20522;-68
2021/12/23 06:18:59;;;;;;;39.43;20.03;;;-2.90;99.90;;;;;;4934825;29;20181;-68
2021/12/23 06:21:28;;;;;;;41.63;19.70;;;-2.80;99.90;;;;;;4934939;29;20197;-68
2021/12/23 06:23:54;;;;;;;28.63;17.40;;;-2.80;99.90;;;;;;4934968;29;20246;-68
2021/12/23 06:26:21;;;;;;;34.53;18.83;;;-2.70;99.90;;;;;;4934591;29;20473;-68
2021/12/23 06:28:46;;;;;;;38.20;19.53;;;-2.70;99.90;;;;;;4934855;29;20539;-68
2021/12/23 06:31:12;;;;;;;31.90;17.97;;;-2.60;99.90;;;;;;4935247;29;20524;-68
2021/12/23 06:33:37;;;;;;;34.37;18.40;;;-2.60;99.90;;;;;;4938738;29;20197;-68
2021/12/23 06:36:03;;;;;;;33.50;18.77;;;-2.60;99.90;;;;;;4938469;29;20188;-68
2021/12/23 06:38:29;;;;;;;38.53;20.77;;;-2.60;99.90;;;;;;4938602;29;20192;-68
2021/12/23 06:40:54;;;;;;;33.77;17.93;;;-2.60;99.90;;;;;;4938525;29;20210;-68
2021/12/23 06:43:20;;;;;;;28.23;17.83;;;-2.50;99.90;;;;;;4938598;29;20935;-68
2021/12/23 06:45:45;;;;;;;32.20;20.20;;;-2.40;99.90;;;;;;4938252;29;20655;-68
2021/12/23 06:48:11;;;;;;;37.33;19.37;;;-2.40;99.90;;;;;;4938486;29;20180;-68
2021/12/23 06:50:37;;;;;;;27.37;16.00;;;-2.30;99.90;;;;;;4938348;29;20173;-68
2021/12/23 06:53:02;;;;;;;35.00;19.27;;;-2.30;99.90;;;;;;4938455;29;20181;-68
2021/12/23 06:55:28;;;;;;;36.07;19.10;;;-2.30;99.90;;;;;;4938092;29;20189;-68
2021/12/23 06:57:56;;;;;;;35.50;17.13;;;-2.30;99.90;;;;;;4938316;29;20181;-68
2021/12/23 07:00:24;;;;;;;29.90;18.27;;;-2.30;99.90;;;;;;4938200;29;20684;-68
2021/12/23 07:02:49;;;;;;;32.90;16.77;;;-2.20;99.90;;;;;;4938262;29;20441;-68
2021/12/23 07:05:16;;;;;;;35.43;18.87;;;-2.20;99.90;;;;;;4937920;29;20797;-68
2021/12/23 07:07:52;;;;;;;37.27;20.30;;;-2.20;99.90;;;;;;4938211;29;20269;-68
2021/12/23 07:10:23;;;;;;;32.27;19.00;;;-2.10;99.90;;;;;;4937938;29;20452;-68
2021/12/23 07:12:49;;;;;;;33.07;17.83;;;-2.10;99.90;;;;;;4937946;29;20441;-68
2021/12/23 07:15:15;;;;;;;31.80;18.80;;;-2.00;99.90;;;;;;4937691;29;20807;-68
2021/12/23 07:17:41;;;;;;;32.17;20.00;;;-2.00;99.90;;;;;;4938069;29;20177;-68
2021/12/23 07:20:07;;;;;;;33.93;18.50;;;-1.90;99.90;;;;;;4937844;29;20461;-68
2021/12/23 07:22:33;;;;;;;30.60;18.30;;;-1.90;99.90;;;;;;4927713;29;20668;-68
2021/12/23 07:24:58;;;;;;;31.40;20.27;;;-1.80;99.90;;;;;;4934407;29;20461;-69
2021/12/23 07:27:24;;;;;;;28.77;16.80;;;-1.90;99.90;;;;;;4918679;29;20231;-68
2021/12/23 07:29:49;;;;;;;34.53;18.13;;;-1.90;99.90;;;;;;4918719;29;20182;-68
2021/12/23 07:32:15;;;;;;;25.77;14.87;;;-1.90;99.90;;;;;;4922094;29;20297;-69
2021/12/23 07:34:42;;;;;;;26.40;16.33;;;-1.90;99.90;;;;;;4923348;29;20186;-71
2021/12/23 07:37:09;;;;;;;27.87;15.17;;;-1.90;99.90;;;;;;4930565;28;20233;-67
2021/12/23 07:39:36;;;;;;;30.90;16.70;;;-1.80;99.90;;;;;;4936802;29;20551;-67
2021/12/23 07:42:02;;;;;;;32.33;17.43;;;-1.50;99.90;;;;;;4936340;29;20453;-68
2021/12/23 07:44:27;;;;;;;34.10;18.97;;;-1.40;99.90;;;;;;4931484;29;20501;-68
2021/12/23 07:46:53;;;;;;;26.67;17.37;;;-1.40;99.90;;;;;;4918175;29;20418;-68
2021/12/23 07:49:19;;;;;;;30.70;17.50;;;-1.40;99.90;;;;;;4918404;29;20655;-68
2021/12/23 07:51:45;;;;;;;28.27;18.10;;;-1.40;99.90;;;;;;4918251;29;20203;-68
2021/12/23 07:54:10;;;;;;;27.30;16.70;;;-1.40;99.90;;;;;;4933952;29;20786;-69
2021/12/23 07:56:36;;;;;;;28.30;16.07;;;-1.40;99.90;;;;;;4936901;29;20301;-68
2021/12/23 07:59:02;;;;;;;32.63;17.10;;;-1.30;99.90;;;;;;4937099;29;20224;-68
2021/12/23 08:01:27;;;;;;;38.50;18.90;;;-1.30;99.90;;;;;;4942130;29;20256;-69
2021/12/23 08:03:53;;;;;;;28.80;16.00;;;-1.20;99.90;;;;;;4956333;29;20564;-68
2021/12/23 08:06:18;;;;;;;28.30;15.87;;;-1.10;99.90;;;;;;4956010;29;20197;-68
2021/12/23 08:08:44;;;;;;;38.67;18.57;;;-1.10;99.90;;;;;;4956151;29;20193;-68
2021/12/23 08:11:10;;;;;;;33.37;17.30;;;-1.00;99.90;;;;;;4955894;28;20212;-68
2021/12/23 08:13:36;;;;;;;32.13;17.13;;;-0.90;99.90;;;;;;4954797;29;20180;-68
2021/12/23 08:16:03;;;;;;;32.10;17.20;;;-0.90;99.90;;;;;;4936478;29;20186;-68
2021/12/23 08:18:30;;;;;;;32.10;17.63;;;-0.70;99.90;;;;;;4936946;29;20433;-69
2021/12/23 08:20:56;;;;;;;26.90;16.23;;;-0.50;99.90;;;;;;4936703;29;20545;-69
2021/12/23 08:23:22;;;;;;;29.83;17.43;;;-0.30;99.90;;;;;;4936817;29;20433;-69
2021/12/23 08:25:47;;;;;;;27.13;17.90;;;0.60;99.90;;;;;;4936368;29;20425;-69
2021/12/23 08:28:13;;;;;;;37.97;22.90;;;1.50;99.90;;;;;;4936676;29;20166;-69
2021/12/23 08:30:40;;;;;;;30.80;16.60;;;1.60;99.90;;;;;;4936453;29;20244;-69
2021/12/23 08:33:06;;;;;;;24.73;15.80;;;1.60;99.90;;;;;;4936610;29;20197;-69
2021/12/23 08:35:32;;;;;;;27.40;16.50;;;1.50;99.90;;;;;;4936268;29;20436;-68
2021/12/23 08:37:58;;;;;;;25.87;15.80;;;1.50;99.90;;;;;;4936516;29;20429;-68
2021/12/23 08:40:26;;;;;;;27.90;15.87;;;1.30;99.90;;;;;;4936313;29;20449;-69
2021/12/23 08:42:52;;;;;;;27.37;15.60;;;1.20;99.90;;;;;;4936187;29;20265;-68
2021/12/23 08:45:19;;;;;;;33.27;18.17;;;1.00;99.90;;;;;;4939858;29;20448;-69
2021/12/23 08:47:45;;;;;;;28.10;18.20;;;0.90;99.90;;;;;;4955488;28;20476;-69
2021/12/23 08:50:14;;;;;;;30.60;17.77;;;0.90;99.90;;;;;;4955420;28;20482;-69
2021/12/23 08:52:40;;;;;;;24.73;16.43;;;1.00;99.90;;;;;;4955049;28;20528;-68
2021/12/23 08:55:08;;;;;;;26.27;16.70;;;0.90;99.90;;;;;;4954417;28;20572;-69
2021/12/23 08:57:34;;;;;;;29.63;17.07;;;1.10;99.90;;;;;;4955137;28;20180;-69
2021/12/23 08:59:59;;;;;;;26.33;16.40;;;1.10;99.90;;;;;;4947440;29;20461;-69
2021/12/23 09:02:25;;;;;;;26.17;16.90;;;1.30;99.90;;;;;;4948020;29;20459;-69
2021/12/23 09:04:51;;;;;;;27.60;16.10;;;1.50;99.90;;;;;;4954899;28;20177;-69
2021/12/23 09:07:16;;;;;;;21.20;15.03;;;1.70;99.90;;;;;;4952726;28;20264;-69
2021/12/23 09:09:46;;;;;;;25.10;17.80;;;1.90;99.90;;;;;;4954510;29;20467;-69
2021/12/23 09:12:12;;;;;;;22.90;15.90;;;2.30;99.90;;;;;;4953674;28;20612;-69
2021/12/23 09:14:37;;;;;;;22.87;16.07;;;2.50;99.90;;;;;;4938852;28;20450;-69
2021/12/23 09:17:03;;;;;;;27.60;17.00;;;2.60;99.90;;;;;;4934558;29;20190;-69
2021/12/23 09:19:29;;;;;;;27.50;15.93;;;2.90;99.90;;;;;;4935494;29;20209;-69
2021/12/23 09:21:55;;;;;;;27.33;15.23;;;3.10;99.90;;;;;;4935034;29;20193;-69
2021/12/23 09:24:20;;;;;;;24.60;15.73;;;2.80;99.90;;;;;;4934960;29;20205;-68
2021/12/23 09:27:35;;;;;;;24.87;16.77;;;2.60;99.90;;;;;;4935124;29;20165;-69
2021/12/23 09:34:49;;;;;;;26.13;16.83;;;2.60;99.90;;;;;;4935833;29;20284;-69
2021/12/23 09:37:15;;;;;;;22.83;15.23;;;2.60;99.90;;;;;;4935495;29;20496;-68
2021/12/23 09:39:41;;;;;;;27.00;15.87;;;2.70;99.90;;;;;;4935422;29;20201;-68
2021/12/23 09:42:07;;;;;;;26.47;18.07;;;2.80;99.90;;;;;;4935328;29;20819;-69
2021/12/23 09:44:32;;;;;;;24.00;15.87;;;2.90;99.90;;;;;;4935288;29;20166;-69
2021/12/23 09:47:02;;;;;;;26.13;14.53;;;2.80;99.90;;;;;;4951531;29;20961;-69
2021/12/23 09:49:29;;;;;;;20.23;14.63;;;2.90;99.90;;;;;;4954432;28;20188;-69
2021/12/23 09:51:56;;;;;;;19.93;13.67;;;2.80;99.90;;;;;;4954582;28;20445;-69
2021/12/23 09:54:25;;;;;;;17.57;12.50;;;2.90;99.90;;;;;;4954074;29;20527;-69
2021/12/23 09:56:52;;;;;;;19.50;15.67;;;2.70;99.90;;;;;;4953982;29;20504;-69
2021/12/23 09:59:18;;;;;;;29.83;15.07;;;2.70;99.90;;;;;;4954231;29;21145;-69
2021/12/23 10:01:44;;;;;;;21.73;12.97;;;2.60;99.90;;;;;;4949484;28;20579;-69
2021/12/23 10:04:09;;;;;;;15.23;10.93;;;2.60;99.90;;;;;;4938200;28;20512;-69
2021/12/23 10:06:35;;;;;;;22.80;13.10;;;2.60;99.90;;;;;;4933255;29;20181;-69
2021/12/23 10:09:01;;;;;;;21.70;13.70;;;2.60;99.90;;;;;;4932330;29;20182;-69
2021/12/23 10:31:07;;;;;;;16.63;11.20;;;3.80;99.90;;;;;;4934818;29;20452;-69
2021/12/23 10:39:24;;;;;;;21.97;11.73;;;3.80;99.90;;;;;;4934626;29;20489;-69
2021/12/23 10:41:50;;;;;;;16.63;10.63;;;3.80;99.90;;;;;;4934249;29;20884;-69
2021/12/23 10:44:29;;;;;;;12.50;9.07;;;3.90;99.90;;;;;;4934639;29;20456;-69
2021/12/23 10:46:55;;;;;;;16.70;12.50;;;4.00;99.90;;;;;;4934389;29;20233;-69
2021/12/23 10:49:38;;;;;;;13.10;9.40;;;4.10;99.90;;;;;;4934574;29;20422;-68
2021/12/23 10:52:09;;;;;;;14.40;8.87;;;4.20;99.90;;;;;;4934540;29;20197;-69
2021/12/23 10:58:02;;;;;;;12.63;8.70;;;4.60;99.90;;;;;;4934174;29;20827;-69
2021/12/23 11:00:37;;;;;;;10.73;7.50;;;4.80;99.90;;;;;;4934096;29;20495;-69
2021/12/23 11:03:33;;;;;;;11.83;8.60;;;5.00;99.90;;;;;;4932704;29;20433;-70
2021/12/23 11:06:28;;;;;;;9.20;7.30;;;5.10;99.90;;;;;;4933898;29;20433;-70
2021/12/23 11:09:37;;;;;;;11.57;8.10;;;5.10;99.90;;;;;;4934162;29;20437;-69
2021/12/23 11:46:12;;;;;;;7.93;6.23;;;5.60;99.90;;;;;;4935873;28;20471;-67
2021/12/23 11:48:42;;;;;;;6.70;5.90;;;5.70;99.90;;;;;;4934287;29;20432;-67
2021/12/23 11:51:14;;;;;;;8.60;5.83;;;5.80;99.90;;;;;;4934191;29;20544;-67
2021/12/23 11:53:41;;;;;;;7.63;5.13;;;5.90;99.90;;;;;;4935908;29;20430;-67
2021/12/23 11:56:09;;;;;;;7.87;4.93;;;6.10;99.90;;;;;;4927921;29;20574;-67
2021/12/23 11:58:41;;;;;;;7.60;5.50;;;6.30;99.90;;;;;;4933162;29;21010;-66
2021/12/23 12:01:10;;;;;;;8.30;6.07;;;6.30;99.90;;;;;;4932809;29;20469;-64
2021/12/23 12:03:50;;;;;;;8.40;5.73;;;6.20;99.90;;;;;;4933000;29;20496;-67
2021/12/23 12:06:18;;;;;;;7.53;5.37;;;6.20;99.90;;;;;;4930038;29;20455;-66
2021/12/23 12:08:44;;;;;;;6.83;5.40;;;6.30;99.90;;;;;;4932534;29;20530;-67
2021/12/23 12:11:27;;;;;;;7.60;6.53;;;6.40;99.90;;;;;;4932620;29;20568;-67
2021/12/23 12:13:53;;;;;;;6.80;5.57;;;6.60;99.90;;;;;;4934476;29;20178;-67
2021/12/23 12:16:36;;;;;;;5.57;5.00;;;6.70;99.90;;;;;;4932313;29;21022;-66
2021/12/23 12:19:03;;;;;;;9.80;6.57;;;6.80;99.90;;;;;;4931498;29;20661;-66
2021/12/23 12:21:32;;;;;;;13.23;5.23;;;6.80;99.90;;;;;;4932505;29;20461;-66
2021/12/23 12:24:13;;;;;;;8.10;6.17;;;6.80;99.90;;;;;;4932255;29;20457;-69
2021/12/23 12:26:58;;;;;;;5.40;4.90;;;6.90;99.90;;;;;;4914229;29;20414;-67
2021/12/23 12:29:34;;;;;;;6.13;5.00;;;6.90;99.90;;;;;;4913767;29;20418;-66
2021/12/23 12:32:00;;;;;;;6.20;4.60;;;6.90;99.90;;;;;;4922630;29;21219;-65
2021/12/23 12:34:34;;;;;;;4.77;4.13;;;6.80;99.90;;;;;;4933291;29;20429;-65
2021/12/23 12:37:01;;;;;;;6.10;5.03;;;6.90;99.90;;;;;;4932700;29;20425;-65
2021/12/23 12:39:40;;;;;;;5.60;4.97;;;6.90;99.90;;;;;;4932961;29;20467;-65
2021/12/23 12:42:11;;;;;;;5.93;4.57;;;6.90;99.90;;;;;;4933135;29;20472;-66
2021/12/23 12:45:02;;;;;;;6.23;4.80;;;6.90;99.90;;;;;;4933038;29;21000;-65
2021/12/23 12:47:31;;;;;;;7.20;5.00;;;6.90;99.90;;;;;;4932835;29;20859;-65
2021/12/23 12:50:25;;;;;;;6.67;5.20;;;6.90;99.90;;;;;;4934263;29;20425;-65
2021/12/23 12:52:51;;;;;;;5.77;5.17;;;6.80;99.90;;;;;;4951874;28;20499;-65
2021/12/23 12:55:23;;;;;;;9.73;5.70;;;6.80;99.90;;;;;;4951829;28;20428;-65
2021/12/23 12:57:52;;;;;;;5.43;4.80;;;6.70;99.90;;;;;;4951943;28;20185;-64
2021/12/23 13:00:36;;;;;;;7.67;5.40;;;6.60;99.90;;;;;;4951655;29;20468;-65
2021/12/23 13:03:06;;;;;;;6.77;5.43;;;6.60;99.90;;;;;;4951482;28;20421;-65
2021/12/23 13:05:38;;;;;;;8.57;5.93;;;6.60;99.90;;;;;;4951743;29;20997;-65
2021/12/23 13:08:24;;;;;;;5.80;4.87;;;6.50;99.90;;;;;;4951781;28;20428;-64
2021/12/23 13:10:50;;;;;;;6.63;5.20;;;6.50;99.90;;;;;;4951796;28;20962;-65
2021/12/23 13:13:35;;;;;;;7.77;4.70;;;6.50;99.90;;;;;;4951655;28;20435;-65
2021/12/23 13:16:23;;;;;;;7.53;5.60;;;6.50;99.90;;;;;;4932761;29;20591;-65
2021/12/23 13:19:17;;;;;;;7.20;5.07;;;6.50;99.90;;;;;;4951669;28;20985;-65
2021/12/23 13:21:45;;;;;;;7.47;4.73;;;6.60;99.90;;;;;;4951280;28;20464;-65
2021/12/23 13:24:12;;;;;;;7.17;5.37;;;6.60;99.90;;;;;;4951220;28;20534;-67
2021/12/23 13:26:38;;;;;;;6.40;4.97;;;6.60;99.90;;;;;;4951086;29;20471;-64
2021/12/23 13:29:06;;;;;;;7.00;5.50;;;6.60;99.90;;;;;;4951421;29;20447;-65
2021/12/23 13:31:34;;;;;;;10.37;7.40;;;6.60;99.90;;;;;;4951129;28;20591;-65
2021/12/23 13:34:03;;;;;;;8.03;6.70;;;6.60;99.90;;;;;;4951157;29;20507;-65
2021/12/23 13:36:37;;;;;;;9.40;7.50;;;6.60;99.90;;;;;;4949486;29;20448;-65
2021/12/23 13:39:12;;;;;;;8.37;6.17;;;6.60;99.90;;;;;;4951266;29;20415;-65
2021/12/23 13:41:53;;;;;;;10.40;6.10;;;6.50;99.90;;;;;;4950886;28;20459;-65
2021/12/23 13:44:26;;;;;;;8.17;6.10;;;6.50;99.90;;;;;;4951248;28;20511;-65
2021/12/23 13:46:56;;;;;;;7.40;5.40;;;6.50;99.90;;;;;;4950732;28;20531;-65
2021/12/23 13:49:32;;;;;;;9.17;5.83;;;6.50;99.90;;;;;;4951300;28;20424;-66